Time;durP1;ratioP1;P1;durP2;ratioP2;P2;SDS_P1;SDS_P2;PMS_P1;PMS_P2;Temp;Humidity;BMP_temperature;BMP_pressure;BME280_temperature;BME280_humidity;BME280_pressure;Samples;Min_cycle;Max_cycle;Signal;HPM_P1;HPM_P2
2022/04/04 00:01:50;;;;;;;1.77;1.67;;;;;;;;;;5111806;28;20289;-55
2022/04/04 00:04:18;;;;;;;1.70;1.60;;;;;;;;;;5115896;28;20203;-55
2022/04/04 00:06:45;;;;;;;1.60;1.50;;;;;;;;;;5096906;28;20200;-55
2022/04/04 00:09:14;;;;;;;1.70;1.60;;;;;;;;;;5097034;28;20224;-55
2022/04/04 00:11:41;;;;;;;2.10;1.67;;;;;;;;;;5096747;28;20211;-55
2022/04/04 00:14:10;;;;;;;1.75;1.65;;;;;;;;;;5096979;28;20214;-55
2022/04/04 00:16:37;;;;;;;1.85;1.70;;;;;;;;;;5099160;28;20594;-55
2022/04/04 00:19:05;;;;;;;1.80;1.70;;;;;;;;;;5117156;28;20226;-55
2022/04/04 00:21:33;;;;;;;1.60;1.50;;;;;;;;;;5116665;28;20294;-55
2022/04/04 00:24:00;;;;;;;1.83;1.67;;;;;;;;;;5117558;28;20276;-55
2022/04/04 00:26:29;;;;;;;1.88;1.58;;;;;;;;;;5116650;28;20221;-55
2022/04/04 00:28:57;;;;;;;2.15;1.35;;;;;;;;;;5116432;28;20500;-55
2022/04/04 00:31:24;;;;;;;1.90;1.58;;;;;;;;;;5116901;28;20195;-55
2022/04/04 00:33:52;;;;;;;1.40;1.30;;;;;;;;;;5116569;28;20214;-55
2022/04/04 00:36:19;;;;;;;1.65;1.55;;;;;;;;;;5117077;28;20203;-55
2022/04/04 00:38:46;;;;;;;1.73;1.50;;;;;;;;;;5102840;28;20548;-55
2022/04/04 00:41:15;;;;;;;1.45;1.35;;;;;;;;;;5108950;28;20222;-55
2022/04/04 00:43:44;;;;;;;1.60;1.50;;;;;;;;;;5096032;28;20599;-55
2022/04/04 00:46:11;;;;;;;1.60;1.50;;;;;;;;;;5096733;28;20208;-55
2022/04/04 00:48:39;;;;;;;1.40;1.30;;;;;;;;;;5088719;28;20195;-55
2022/04/04 00:51:06;;;;;;;1.73;1.45;;;;;;;;;;5116634;28;20222;-55
2022/04/04 00:53:33;;;;;;;1.60;1.50;;;;;;;;;;5116026;28;20593;-55
2022/04/04 00:56:01;;;;;;;1.77;1.50;;;;;;;;;;5096993;28;20210;-55
2022/04/04 00:58:30;;;;;;;1.58;1.48;;;;;;;;;;5096678;28;20199;-55
2022/04/04 01:00:59;;;;;;;1.50;1.40;;;;;;;;;;5096728;28;20206;-55
2022/04/04 01:03:26;;;;;;;1.40;1.30;;;;;;;;;;5099485;28;20508;-55
2022/04/04 01:05:54;;;;;;;1.73;1.60;;;;;;;;;;5117404;28;20482;-55
2022/04/04 01:08:23;;;;;;;1.35;1.25;;;;;;;;;;5106794;28;20203;-55
2022/04/04 01:10:50;;;;;;;1.45;1.35;;;;;;;;;;5096378;28;20251;-55
2022/04/04 01:13:17;;;;;;;1.45;1.35;;;;;;;;;;5096584;28;20564;-55
2022/04/04 01:15:45;;;;;;;1.33;1.20;;;;;;;;;;5096068;28;20507;-55
2022/04/04 01:18:14;;;;;;;1.30;1.20;;;;;;;;;;5096454;28;20503;-55
2022/04/04 01:20:41;;;;;;;1.45;1.30;;;;;;;;;;5096356;28;20573;-55
2022/04/04 01:23:09;;;;;;;1.40;1.30;;;;;;;;;;5096395;28;20204;-55
2022/04/04 01:25:37;;;;;;;1.42;1.33;;;;;;;;;;5100898;28;20199;-55
2022/04/04 01:28:06;;;;;;;1.50;1.40;;;;;;;;;;5114481;28;20206;-55
2022/04/04 01:30:34;;;;;;;1.73;1.20;;;;;;;;;;5114878;28;20507;-55
2022/04/04 01:33:01;;;;;;;1.40;1.27;;;;;;;;;;5115927;28;20217;-55
2022/04/04 01:35:29;;;;;;;1.50;1.40;;;;;;;;;;5115578;28;20199;-55
2022/04/04 01:37:56;;;;;;;1.48;1.38;;;;;;;;;;5110071;28;20207;-55
2022/04/04 01:40:24;;;;;;;1.33;1.23;;;;;;;;;;5105067;28;20589;-55
2022/04/04 01:42:53;;;;;;;1.45;1.35;;;;;;;;;;5119981;28;20238;-55
2022/04/04 01:46:23;;;;;;;1.40;1.30;;;;;;;;;;5100340;28;20230;-55
2022/04/04 01:48:08;;;;;;;1.25;1.15;;;;;;;;;;5101170;28;20529;-55
2022/04/04 01:50:36;;;;;;;1.50;1.40;;;;;;;;;;5100014;28;20280;-55
2022/04/04 01:55:48;;;;;;;1.90;1.33;;;;;;;;;;5100924;28;20257;-55
2022/04/04 01:58:18;;;;;;;1.45;1.35;;;;;;;;;;5111359;28;20199;-55
2022/04/04 02:00:46;;;;;;;1.48;1.38;;;;;;;;;;5099614;28;20199;-55
2022/04/04 02:03:13;;;;;;;1.38;1.20;;;;;;;;;;5113627;28;20203;-55
2022/04/04 02:05:40;;;;;;;1.42;1.33;;;;;;;;;;5119754;28;20217;-55
2022/04/04 02:08:08;;;;;;;1.50;1.40;;;;;;;;;;5119966;28;20207;-55
2022/04/04 02:10:36;;;;;;;1.25;1.13;;;;;;;;;;5120155;28;20236;-55
2022/04/04 02:13:03;;;;;;;1.30;1.20;;;;;;;;;;5119372;28;20203;-56
2022/04/04 02:15:32;;;;;;;1.30;1.20;;;;;;;;;;5104262;28;20227;-55
2022/04/04 02:18:00;;;;;;;1.55;1.23;;;;;;;;;;5099875;28;20235;-55
2022/04/04 02:20:27;;;;;;;1.30;1.20;;;;;;;;;;5099347;28;20206;-55
2022/04/04 02:22:54;;;;;;;1.48;1.38;;;;;;;;;;5099169;28;20203;-55
2022/04/04 02:25:22;;;;;;;1.50;1.10;;;;;;;;;;5099275;28;20203;-55
2022/04/04 02:27:49;;;;;;;1.10;1.10;;;;;;;;;;5107821;28;20609;-55
2022/04/04 02:30:16;;;;;;;1.40;1.20;;;;;;;;;;5119092;28;20230;-55
2022/04/04 02:32:45;;;;;;;1.20;1.10;;;;;;;;;;5118860;28;20301;-55
2022/04/04 02:35:13;;;;;;;1.35;1.25;;;;;;;;;;5119524;28;20500;-55
2022/04/04 02:37:40;;;;;;;1.10;1.00;;;;;;;;;;5116097;28;20219;-56
2022/04/04 02:40:09;;;;;;;1.30;1.20;;;;;;;;;;5102296;28;20204;-56
2022/04/04 02:42:36;;;;;;;1.33;1.23;;;;;;;;;;5119141;28;20242;-55
2022/04/04 02:45:03;;;;;;;1.30;1.20;;;;;;;;;;5119363;28;20199;-56
2022/04/04 02:47:31;;;;;;;1.17;1.08;;;;;;;;;;5119666;28;20203;-55
2022/04/04 02:49:59;;;;;;;0.90;0.90;;;;;;;;;;5099672;28;20474;-56
2022/04/04 02:52:27;;;;;;;1.15;1.02;;;;;;;;;;5098917;28;20203;-56
2022/04/04 02:54:54;;;;;;;1.30;1.10;;;;;;;;;;5098833;28;20227;-56
2022/04/04 02:57:21;;;;;;;1.15;1.05;;;;;;;;;;5114386;28;20199;-56
2022/04/04 02:59:49;;;;;;;1.25;1.15;;;;;;;;;;5099822;28;20254;-56
2022/04/04 03:02:16;;;;;;;1.00;1.00;;;;;;;;;;5099096;28;20332;-55
2022/04/04 03:04:43;;;;;;;1.15;1.05;;;;;;;;;;5115787;28;20602;-57
2022/04/04 03:07:12;;;;;;;1.15;1.05;;;;;;;;;;5119012;28;20203;-56
2022/04/04 03:09:41;;;;;;;1.25;1.15;;;;;;;;;;5098945;28;20231;-56
2022/04/04 03:12:09;;;;;;;1.20;1.10;;;;;;;;;;5098869;28;20268;-55
2022/04/04 03:14:36;;;;;;;0.90;0.90;;;;;;;;;;5098617;28;20200;-56
2022/04/04 03:17:03;;;;;;;1.08;1.00;;;;;;;;;;5098753;28;20219;-56
2022/04/04 03:19:31;;;;;;;0.90;0.90;;;;;;;;;;5097920;28;20207;-56
2022/04/04 03:21:58;;;;;;;1.20;1.10;;;;;;;;;;5098088;28;20203;-56
2022/04/04 03:24:27;;;;;;;1.23;1.13;;;;;;;;;;5098070;28;20206;-56
2022/04/04 03:26:55;;;;;;;1.50;1.40;;;;;;;;;;5098372;28;20214;-56
2022/04/04 03:29:22;;;;;;;1.17;1.10;;;;;;;;;;5102583;28;20502;-56
2022/04/04 03:31:49;;;;;;;1.60;1.10;;;;;;;;;;5118345;28;20234;-56
2022/04/04 03:34:17;;;;;;;1.27;1.00;;;;;;;;;;5104249;28;20222;-55
2022/04/04 03:36:47;;;;;;;1.33;1.20;;;;;;;;;;5098086;28;20278;-55
2022/04/04 03:39:16;;;;;;;1.30;1.20;;;;;;;;;;5113590;28;20221;-56
2022/04/04 03:41:45;;;;;;;1.00;1.00;;;;;;;;;;5101232;28;20223;-56
2022/04/04 03:44:12;;;;;;;0.80;0.80;;;;;;;;;;5097315;28;20191;-56
2022/04/04 03:46:40;;;;;;;0.95;0.95;;;;;;;;;;5098581;28;20204;-56
2022/04/04 03:49:07;;;;;;;0.90;0.90;;;;;;;;;;5107750;28;20594;-56
2022/04/04 03:51:36;;;;;;;1.10;1.00;;;;;;;;;;5118357;28;20245;-56
2022/04/04 03:54:05;;;;;;;1.33;1.20;;;;;;;;;;5117627;28;20199;-56
2022/04/04 03:56:33;;;;;;;1.42;1.13;;;;;;;;;;5116308;28;20472;-56
2022/04/04 03:59:02;;;;;;;1.10;1.00;;;;;;;;;;5106232;28;20195;-55
2022/04/04 04:01:30;;;;;;;1.23;1.13;;;;;;;;;;5118117;28;20260;-56
2022/04/04 04:03:58;;;;;;;1.15;1.10;;;;;;;;;;5103596;28;20200;-56
2022/04/04 04:06:25;;;;;;;1.27;1.17;;;;;;;;;;5096564;28;20204;-56
2022/04/04 04:08:53;;;;;;;0.88;0.88;;;;;;;;;;5097199;28;20215;-56
2022/04/04 04:11:21;;;;;;;1.00;0.90;;;;;;;;;;5096899;28;20615;-56
2022/04/04 04:13:48;;;;;;;1.10;1.00;;;;;;;;;;5096862;28;20224;-56
2022/04/04 04:16:17;;;;;;;1.20;1.10;;;;;;;;;;5111080;28;20221;-55
2022/04/04 04:18:45;;;;;;;1.25;1.15;;;;;;;;;;5117547;28;20301;-56
2022/04/04 04:21:13;;;;;;;1.00;1.00;;;;;;;;;;5116367;28;20272;-56
2022/04/04 04:23:41;;;;;;;1.13;1.00;;;;;;;;;;5116620;28;20203;-56
2022/04/04 04:26:11;;;;;;;1.08;1.08;;;;;;;;;;5116170;28;20559;-56
2022/04/04 04:28:39;;;;;;;1.20;1.10;;;;;;;;;;5116975;28;20203;-56
2022/04/04 04:31:06;;;;;;;1.20;1.10;;;;;;;;;;5115985;28;20223;-56
2022/04/04 04:33:36;;;;;;;1.35;1.13;;;;;;;;;;5115663;28;20202;-56
2022/04/04 04:36:03;;;;;;;1.48;0.98;;;;;;;;;;5115982;28;20781;-56
2022/04/04 04:38:31;;;;;;;0.90;0.90;;;;;;;;;;5103746;28;20222;-55
2022/04/04 04:40:58;;;;;;;1.20;1.10;;;;;;;;;;5107382;28;20299;-55
2022/04/04 04:43:26;;;;;;;1.10;1.00;;;;;;;;;;5115499;28;20199;-56
2022/04/04 04:45:54;;;;;;;0.98;0.90;;;;;;;;;;5115768;28;20501;-56
2022/04/04 04:48:21;;;;;;;1.10;1.00;;;;;;;;;;5107655;28;20196;-56
2022/04/04 04:50:51;;;;;;;1.10;1.00;;;;;;;;;;5095014;28;20763;-55
2022/04/04 04:53:18;;;;;;;1.10;1.00;;;;;;;;;;5101612;28;20190;-55
2022/04/04 04:55:46;;;;;;;1.02;0.93;;;;;;;;;;5115049;28;20203;-56
2022/04/04 04:58:15;;;;;;;0.98;0.95;;;;;;;;;;5110004;28;20214;-56
2022/04/04 05:00:42;;;;;;;1.02;0.93;;;;;;;;;;5094379;28;20195;-55
2022/04/04 05:03:28;;;;;;;1.17;1.08;;;;;;;;;;5094483;28;20196;-57
2022/04/04 05:05:57;;;;;;;1.05;0.95;;;;;;;;;;5104163;28;20230;-56
2022/04/04 05:08:24;;;;;;;1.13;1.02;;;;;;;;;;5102990;28;20290;-56
2022/04/04 05:10:52;;;;;;;1.17;1.08;;;;;;;;;;5093731;28;20230;-56
2022/04/04 05:13:21;;;;;;;1.15;1.10;;;;;;;;;;5093930;28;20196;-56
2022/04/04 05:15:48;;;;;;;1.00;1.00;;;;;;;;;;5097988;28;20242;-56
2022/04/04 05:18:16;;;;;;;0.93;0.93;;;;;;;;;;5114312;28;20210;-56
2022/04/04 05:20:43;;;;;;;0.85;0.85;;;;;;;;;;5111097;28;20196;-56
2022/04/04 05:23:12;;;;;;;1.20;1.10;;;;;;;;;;5117001;28;20196;-56
2022/04/04 05:25:39;;;;;;;1.10;1.02;;;;;;;;;;5111244;28;20196;-56
2022/04/04 05:28:07;;;;;;;1.00;1.00;;;;;;;;;;5100664;28;20202;-56
2022/04/04 05:30:35;;;;;;;0.90;0.90;;;;;;;;;;5118243;28;20288;-56
2022/04/04 05:33:02;;;;;;;1.10;1.00;;;;;;;;;;5116205;28;20202;-55
2022/04/04 05:35:30;;;;;;;1.35;1.10;;;;;;;;;;5101690;28;20195;-55
2022/04/04 05:37:57;;;;;;;1.10;1.00;;;;;;;;;;5108535;28;20203;-56
2022/04/04 05:40:26;;;;;;;1.00;0.90;;;;;;;;;;5111313;28;20208;-56
2022/04/04 05:42:55;;;;;;;1.27;1.17;;;;;;;;;;5097596;28;20227;-56
2022/04/04 05:45:23;;;;;;;4.00;1.65;;;;;;;;;;5097644;28;20222;-56
2022/04/04 05:47:52;;;;;;;2.47;1.60;;;;;;;;;;5097435;28;20199;-55
2022/04/04 05:50:20;;;;;;;2.85;1.40;;;;;;;;;;5097299;28;20191;-56
2022/04/04 05:52:47;;;;;;;2.63;1.20;;;;;;;;;;5108706;28;20191;-56
2022/04/04 05:55:15;;;;;;;2.45;1.40;;;;;;;;;;5117178;28;20577;-56
2022/04/04 05:57:45;;;;;;;2.00;1.80;;;;;;;;;;5118020;28;20203;-55
2022/04/04 06:00:13;;;;;;;2.50;2.30;;;;;;;;;;5108901;28;20206;-55
2022/04/04 06:02:41;;;;;;;2.83;2.53;;;;;;;;;;5097014;28;20261;-55
2022/04/04 06:05:09;;;;;;;4.15;3.10;;;;;;;;;;5108165;28;20206;-55
2022/04/04 06:07:37;;;;;;;5.82;3.35;;;;;;;;;;5118024;28;20195;-56
2022/04/04 06:10:08;;;;;;;3.65;3.33;;;;;;;;;;5116812;28;20207;-55
2022/04/04 06:12:36;;;;;;;5.03;3.30;;;;;;;;;;5117203;28;20713;-56
2022/04/04 06:15:05;;;;;;;4.90;3.75;;;;;;;;;;5106075;28;20200;-56
2022/04/04 06:17:32;;;;;;;3.88;3.50;;;;;;;;;;5096471;28;20207;-56
2022/04/04 06:20:00;;;;;;;4.28;3.63;;;;;;;;;;5096839;28;20203;-56
2022/04/04 06:22:27;;;;;;;4.15;3.75;;;;;;;;;;5097242;28;20195;-56
2022/04/04 06:24:54;;;;;;;5.20;3.72;;;;;;;;;;5095500;28;20207;-56
2022/04/04 06:27:22;;;;;;;4.38;3.85;;;;;;;;;;5097161;28;20211;-56
2022/04/04 06:29:50;;;;;;;5.75;3.67;;;;;;;;;;5096931;28;20230;-56
2022/04/04 06:32:18;;;;;;;4.20;3.70;;;;;;;;;;5097000;28;20230;-56
2022/04/04 06:34:46;;;;;;;4.30;3.90;;;;;;;;;;5107569;28;20198;-56
2022/04/04 06:37:14;;;;;;;5.57;3.80;;;;;;;;;;5106127;28;20196;-56
2022/04/04 06:39:41;;;;;;;4.03;3.50;;;;;;;;;;5115410;28;20316;-57
2022/04/04 06:42:09;;;;;;;4.47;3.67;;;;;;;;;;5096930;28;20230;-56
2022/04/04 06:44:36;;;;;;;4.70;3.70;;;;;;;;;;5096268;28;20500;-56
2022/04/04 06:47:04;;;;;;;5.03;3.88;;;;;;;;;;5097127;28;20250;-56
2022/04/04 06:49:33;;;;;;;3.88;3.33;;;;;;;;;;5111299;28;20217;-56
2022/04/04 06:52:00;;;;;;;4.47;4.07;;;;;;;;;;5117001;28;20234;-56
2022/04/04 06:54:28;;;;;;;4.28;3.75;;;;;;;;;;5116044;28;20327;-56
2022/04/04 06:56:55;;;;;;;4.15;3.40;;;;;;;;;;5117000;28;20647;-56
2022/04/04 06:59:23;;;;;;;3.92;3.55;;;;;;;;;;5104403;28;20191;-56
2022/04/04 07:01:50;;;;;;;3.95;3.35;;;;;;;;;;5096693;28;20200;-56
2022/04/04 07:04:18;;;;;;;3.95;3.55;;;;;;;;;;5096114;28;20195;-56
2022/04/04 07:06:46;;;;;;;4.07;3.33;;;;;;;;;;5102880;28;20218;-56
2022/04/04 07:09:14;;;;;;;8.48;3.70;;;;;;;;;;5099874;28;20200;-56
2022/04/04 07:11:41;;;;;;;7.95;3.83;;;;;;;;;;5097039;28;20227;-56
2022/04/04 07:14:10;;;;;;;8.80;4.10;;;;;;;;;;5097185;28;20200;-55
2022/04/04 07:16:38;;;;;;;7.35;4.35;;;;;;;;;;5095938;28;20579;-56
2022/04/04 07:19:05;;;;;;;5.88;4.43;;;;;;;;;;5096491;28;20290;-56
2022/04/04 07:21:33;;;;;;;6.32;4.35;;;;;;;;;;5116036;28;20210;-56
2022/04/04 07:24:02;;;;;;;6.78;4.00;;;;;;;;;;5116247;28;20201;-55
2022/04/04 07:26:29;;;;;;;5.45;4.05;;;;;;;;;;5116915;28;20206;-57
2022/04/04 07:28:56;;;;;;;9.18;4.18;;;;;;;;;;5115188;28;20604;-56
2022/04/04 07:31:24;;;;;;;5.43;4.07;;;;;;;;;;5115589;28;20303;-56
2022/04/04 07:33:51;;;;;;;4.93;3.72;;;;;;;;;;5104706;28;20208;-56
2022/04/04 07:36:19;;;;;;;5.22;3.53;;;;;;;;;;5094879;28;20289;-56
2022/04/04 07:38:46;;;;;;;4.88;3.70;;;;;;;;;;5098664;28;20210;-58
2022/04/04 07:41:15;;;;;;;5.60;4.05;;;;;;;;;;5078268;28;20246;-56
2022/04/04 07:43:42;;;;;;;4.45;3.38;;;;;;;;;;5101304;28;20450;-56
2022/04/04 07:46:10;;;;;;;5.28;3.55;;;;;;;;;;5115487;28;20202;-56
2022/04/04 07:48:39;;;;;;;5.55;3.42;;;;;;;;;;5107085;28;20192;-57
2022/04/04 07:51:06;;;;;;;5.47;3.33;;;;;;;;;;5094920;28;20285;-56
2022/04/04 07:53:34;;;;;;;3.97;3.20;;;;;;;;;;5095096;28;20586;-56
2022/04/04 07:56:01;;;;;;;4.20;3.03;;;;;;;;;;5094995;28;20570;-56
2022/04/04 07:58:30;;;;;;;4.07;2.75;;;;;;;;;;5107519;28;20191;-56
2022/04/04 08:00:57;;;;;;;3.45;3.00;;;;;;;;;;5094342;28;20282;-56
2022/04/04 08:03:25;;;;;;;3.72;3.10;;;;;;;;;;5094333;28;20195;-57
2022/04/04 08:05:52;;;;;;;4.38;2.60;;;;;;;;;;5094000;28;20234;-57
2022/04/04 08:08:19;;;;;;;3.30;3.00;;;;;;;;;;5095459;28;20203;-56
2022/04/04 08:10:47;;;;;;;2.90;2.70;;;;;;;;;;5094833;28;20238;-56
2022/04/04 08:13:15;;;;;;;5.68;2.95;;;;;;;;;;5094594;28;20234;-57
2022/04/04 08:15:44;;;;;;;3.97;2.78;;;;;;;;;;5102927;28;20583;-56
2022/04/04 08:18:11;;;;;;;4.45;2.63;;;;;;;;;;5114808;28;20203;-56
2022/04/04 08:20:39;;;;;;;3.55;2.58;;;;;;;;;;5114799;28;20229;-56
2022/04/04 08:23:06;;;;;;;4.75;2.70;;;;;;;;;;5114862;28;20236;-56
2022/04/04 08:25:35;;;;;;;2.75;2.45;;;;;;;;;;5114837;28;20267;-56
2022/04/04 08:28:02;;;;;;;6.03;2.70;;;;;;;;;;5114701;28;20198;-56
2022/04/04 08:30:30;;;;;;;4.68;2.50;;;;;;;;;;5115180;28;20506;-56
2022/04/04 08:32:59;;;;;;;3.10;2.35;;;;;;;;;;5115011;28;20230;-56
2022/04/04 08:35:26;;;;;;;4.72;2.28;;;;;;;;;;5114201;28;20202;-56
2022/04/04 08:37:53;;;;;;;2.83;2.35;;;;;;;;;;5114746;28;20206;-56
2022/04/04 08:40:21;;;;;;;5.80;2.58;;;;;;;;;;5109838;28;20670;-55
2022/04/04 08:42:48;;;;;;;5.43;2.40;;;;;;;;;;5113848;28;20249;-56
2022/04/04 08:45:16;;;;;;;2.95;2.50;;;;;;;;;;5113997;28;20209;-57
2022/04/04 08:47:43;;;;;;;2.92;2.40;;;;;;;;;;5112362;28;20203;-57
2022/04/04 08:50:13;;;;;;;4.55;1.98;;;;;;;;;;5098491;28;20203;-56
2022/04/04 08:52:40;;;;;;;3.65;2.38;;;;;;;;;;5098503;28;20826;-56
2022/04/04 08:55:08;;;;;;;2.38;2.17;;;;;;;;;;5104967;28;20664;-56
2022/04/04 08:57:36;;;;;;;2.10;1.90;;;;;;;;;;5118075;28;20234;-56
2022/04/04 09:00:03;;;;;;;3.65;1.85;;;;;;;;;;5097895;28;20573;-56
2022/04/04 09:02:32;;;;;;;3.03;2.03;;;;;;;;;;5098319;28;20207;-55
2022/04/04 09:05:04;;;;;;;2.40;2.17;;;;;;;;;;5097476;28;20203;-56
2022/04/04 09:07:33;;;;;;;2.00;1.80;;;;;;;;;;5099994;28;20537;-56
2022/04/04 09:10:00;;;;;;;1.90;1.80;;;;;;;;;;5103826;28;20202;-56
2022/04/04 09:12:28;;;;;;;3.42;1.88;;;;;;;;;;5117031;28;20225;-56
2022/04/04 09:14:56;;;;;;;2.97;1.85;;;;;;;;;;5116492;28;20191;-57
2022/04/04 09:17:27;;;;;;;2.60;2.40;;;;;;;;;;5119013;28;20562;-56
2022/04/04 09:19:54;;;;;;;2.45;2.10;;;;;;;;;;5118289;28;20293;-56
2022/04/04 09:22:23;;;;;;;2.83;2.00;;;;;;;;;;5118674;28;20298;-56
2022/04/04 09:24:52;;;;;;;2.50;2.17;;;;;;;;;;5118085;28;20203;-56
2022/04/04 09:27:22;;;;;;;2.00;1.80;;;;;;;;;;5117496;28;20213;-57
2022/04/04 09:29:51;;;;;;;2.20;2.00;;;;;;;;;;5117029;28;20226;-57
2022/04/04 09:32:18;;;;;;;2.20;2.00;;;;;;;;;;5116994;28;20222;-57
2022/04/04 09:34:53;;;;;;;2.97;2.03;;;;;;;;;;5100088;28;20579;-56
2022/04/04 09:37:21;;;;;;;2.10;2.00;;;;;;;;;;5097293;28;20203;-56
2022/04/04 09:39:50;;;;;;;2.35;2.15;;;;;;;;;;5098977;28;20195;-56
2022/04/04 09:42:19;;;;;;;2.47;1.95;;;;;;;;;;5116874;28;20215;-56
2022/04/04 09:45:00;;;;;;;2.10;1.90;;;;;;;;;;5100389;28;20221;-56
2022/04/04 09:47:42;;;;;;;2.10;1.90;;;;;;;;;;5118031;28;20225;-56
2022/04/04 09:50:09;;;;;;;2.40;2.10;;;;;;;;;;5116807;28;20199;-55
2022/04/04 09:52:51;;;;;;;1.95;1.85;;;;;;;;;;5116131;28;20219;-56
2022/04/04 09:55:28;;;;;;;2.20;1.92;;;;;;;;;;5116771;28;20199;-56
2022/04/04 09:57:57;;;;;;;2.55;2.30;;;;;;;;;;5107638;28;20210;-57
2022/04/04 10:00:24;;;;;;;2.03;1.80;;;;;;;;;;5114324;28;20206;-57
2022/04/04 10:02:54;;;;;;;2.15;1.98;;;;;;;;;;5112748;28;20262;-56
2022/04/04 10:05:21;;;;;;;2.63;2.15;;;;;;;;;;5096685;28;20597;-56
2022/04/04 10:07:51;;;;;;;2.13;2.00;;;;;;;;;;5112917;28;20198;-57
2022/04/04 10:10:19;;;;;;;2.00;1.90;;;;;;;;;;5116185;28;20198;-56
2022/04/04 10:12:48;;;;;;;2.40;2.20;;;;;;;;;;5116977;28;20222;-56
2022/04/04 10:15:17;;;;;;;1.90;1.80;;;;;;;;;;5116522;28;20202;-56
2022/04/04 10:17:45;;;;;;;2.00;1.90;;;;;;;;;;5116537;28;20207;-56
2022/04/04 10:20:13;;;;;;;2.20;1.95;;;;;;;;;;5117180;28;20191;-56
2022/04/04 10:22:40;;;;;;;2.17;1.98;;;;;;;;;;5098636;28;20199;-56
2022/04/04 10:25:09;;;;;;;2.15;1.90;;;;;;;;;;5115612;28;20267;-57
2022/04/04 10:27:36;;;;;;;2.08;1.77;;;;;;;;;;5115184;28;20199;-56
2022/04/04 10:30:05;;;;;;;2.00;1.85;;;;;;;;;;5114575;28;20195;-56
2022/04/04 10:32:34;;;;;;;1.83;1.73;;;;;;;;;;5115967;28;20625;-57
2022/04/04 10:35:10;;;;;;;1.70;1.60;;;;;;;;;;5096197;28;20204;-56
2022/04/04 10:37:43;;;;;;;2.53;1.70;;;;;;;;;;5100586;28;20264;-56
2022/04/04 10:40:19;;;;;;;1.88;1.77;;;;;;;;;;5110011;28;20277;-57
2022/04/04 10:42:48;;;;;;;2.25;2.05;;;;;;;;;;5100209;28;20326;-56
2022/04/04 10:45:18;;;;;;;1.70;1.60;;;;;;;;;;5115750;28;20490;-56
2022/04/04 10:47:47;;;;;;;1.88;1.77;;;;;;;;;;5115347;28;20203;-56
2022/04/04 10:50:19;;;;;;;1.90;1.70;;;;;;;;;;5095897;28;20203;-56
2022/04/04 10:52:47;;;;;;;1.95;1.85;;;;;;;;;;5095694;28;20220;-56
2022/04/04 10:55:32;;;;;;;2.20;2.00;;;;;;;;;;5095873;28;20575;-56
2022/04/04 10:58:00;;;;;;;2.10;1.90;;;;;;;;;;5099335;28;20195;-56
2022/04/04 11:00:34;;;;;;;2.05;1.95;;;;;;;;;;5116151;28;20275;-56
2022/04/04 11:03:03;;;;;;;1.80;1.70;;;;;;;;;;5112801;28;20191;-56
2022/04/04 11:08:32;;;;;;;1.85;1.70;;;;;;;;;;5096834;28;20203;-56
2022/04/04 11:11:00;;;;;;;1.83;1.73;;;;;;;;;;5094842;28;20196;-56
2022/04/04 11:13:28;;;;;;;2.33;2.15;;;;;;;;;;5094703;28;20227;-57
2022/04/04 11:15:55;;;;;;;1.77;1.67;;;;;;;;;;5095171;28;20200;-56
2022/04/04 11:18:32;;;;;;;2.00;1.90;;;;;;;;;;5100777;28;20195;-56
2022/04/04 11:21:00;;;;;;;2.20;2.00;;;;;;;;;;5115777;28;20211;-56
2022/04/04 11:23:30;;;;;;;1.75;1.65;;;;;;;;;;5103648;28;20203;-57
2022/04/04 11:25:58;;;;;;;1.77;1.67;;;;;;;;;;5094693;28;20389;-56
2022/04/04 11:28:30;;;;;;;1.80;1.70;;;;;;;;;;5094374;28;20196;-56
2022/04/04 11:31:05;;;;;;;1.90;1.80;;;;;;;;;;5095514;28;20209;-56
2022/04/04 11:33:34;;;;;;;2.25;1.98;;;;;;;;;;5094717;28;20251;-56
2022/04/04 11:36:06;;;;;;;2.00;1.90;;;;;;;;;;5095430;28;20204;-56
2022/04/04 11:38:40;;;;;;;1.90;1.80;;;;;;;;;;5107070;28;20293;-56
2022/04/04 11:41:11;;;;;;;2.10;1.90;;;;;;;;;;5101434;28;20223;-56
2022/04/04 11:43:40;;;;;;;1.80;1.70;;;;;;;;;;5094109;28;20491;-56
2022/04/04 11:46:14;;;;;;;2.00;1.90;;;;;;;;;;5097267;28;20299;-56
2022/04/04 11:48:54;;;;;;;1.70;1.60;;;;;;;;;;5093665;28;20207;-56
2022/04/04 11:51:22;;;;;;;1.90;1.80;;;;;;;;;;5094743;28;20206;-57
2022/04/04 11:53:51;;;;;;;1.70;1.52;;;;;;;;;;5094313;28;20212;-57
2022/04/04 11:56:21;;;;;;;1.80;1.70;;;;;;;;;;5093420;28;20636;-56
2022/04/04 11:58:51;;;;;;;1.60;1.50;;;;;;;;;;5099120;28;20206;-56
2022/04/04 12:01:18;;;;;;;1.88;1.52;;;;;;;;;;5099371;28;20286;-57
2022/04/04 12:03:49;;;;;;;1.55;1.42;;;;;;;;;;5096139;28;20568;-56
2022/04/04 12:06:18;;;;;;;1.80;1.55;;;;;;;;;;5114427;28;20323;-56
2022/04/04 12:08:46;;;;;;;1.70;1.60;;;;;;;;;;5114574;28;20203;-56
2022/04/04 12:11:13;;;;;;;1.70;1.60;;;;;;;;;;5114943;28;20202;-56
2022/04/04 12:13:53;;;;;;;1.60;1.50;;;;;;;;;;5113824;28;20223;-56
2022/04/04 12:16:21;;;;;;;1.40;1.30;;;;;;;;;;5114651;28;20194;-56
2022/04/04 12:18:54;;;;;;;1.60;1.50;;;;;;;;;;5114855;28;20206;-56
2022/04/04 12:21:23;;;;;;;1.70;1.60;;;;;;;;;;5114566;28;20308;-56
2022/04/04 12:26:36;;;;;;;1.42;1.33;;;;;;;;;;5112809;28;20218;-56
2022/04/04 12:29:07;;;;;;;1.50;1.35;;;;;;;;;;5114007;28;20609;-56
2022/04/04 12:31:35;;;;;;;2.53;1.63;;;;;;;;;;5113424;28;20199;-56
2022/04/04 12:34:06;;;;;;;1.70;1.60;;;;;;;;;;5100367;28;20219;-56
2022/04/04 12:36:38;;;;;;;1.75;1.65;;;;;;;;;;5092783;28;20207;-55
2022/04/04 12:39:05;;;;;;;2.03;1.67;;;;;;;;;;5108733;28;20202;-55
2022/04/04 12:41:43;;;;;;;1.85;1.50;;;;;;;;;;5108624;28;20355;-56
2022/04/04 12:44:10;;;;;;;1.90;1.70;;;;;;;;;;5112677;28;20680;-56
2022/04/04 12:46:38;;;;;;;2.17;1.70;;;;;;;;;;5096872;28;20203;-55
2022/04/04 12:49:09;;;;;;;2.88;1.80;;;;;;;;;;5112073;28;20199;-55
2022/04/04 12:51:38;;;;;;;2.40;1.70;;;;;;;;;;5112378;28;20625;-55
2022/04/04 12:54:05;;;;;;;2.22;1.60;;;;;;;;;;5112561;28;20250;-55
2022/04/04 12:56:48;;;;;;;1.60;1.50;;;;;;;;;;5113100;28;20203;-55
2022/04/04 12:59:16;;;;;;;2.90;1.77;;;;;;;;;;5112566;28;20263;-58
2022/04/04 13:01:45;;;;;;;2.38;1.70;;;;;;;;;;5113092;28;20275;-56
2022/04/04 13:04:20;;;;;;;1.98;1.77;;;;;;;;;;5098811;28;20200;-56
2022/04/04 13:06:50;;;;;;;2.97;2.05;;;;;;;;;;5093031;28;20506;-57
2022/04/04 13:09:24;;;;;;;1.92;1.52;;;;;;;;;;5110458;28;20199;-56
2022/04/04 13:11:52;;;;;;;2.30;1.80;;;;;;;;;;5112617;28;20604;-56
2022/04/04 13:14:21;;;;;;;1.75;1.60;;;;;;;;;;5112114;28;20219;-56
2022/04/04 13:16:54;;;;;;;2.22;2.00;;;;;;;;;;5112463;28;20198;-57
2022/04/04 13:19:23;;;;;;;2.53;1.80;;;;;;;;;;5092759;28;20202;-56
2022/04/04 13:21:53;;;;;;;2.60;1.67;;;;;;;;;;5092734;28;20207;-57
2022/04/04 13:24:21;;;;;;;1.80;1.67;;;;;;;;;;5102810;28;20241;-56
2022/04/04 13:26:49;;;;;;;2.28;1.52;;;;;;;;;;5092971;28;20195;-56
2022/04/04 13:29:17;;;;;;;1.60;1.50;;;;;;;;;;5097872;28;20191;-56
2022/04/04 13:31:45;;;;;;;1.70;1.60;;;;;;;;;;5113203;28;20195;-56
2022/04/04 13:34:13;;;;;;;2.42;1.60;;;;;;;;;;5113220;28;20618;-56
2022/04/04 13:36:41;;;;;;;2.33;1.63;;;;;;;;;;5117025;28;20198;-56
2022/04/04 13:39:10;;;;;;;1.67;1.48;;;;;;;;;;5115112;28;20591;-56
2022/04/04 13:41:42;;;;;;;1.83;1.50;;;;;;;;;;5115345;28;20234;-56
2022/04/04 13:44:10;;;;;;;1.70;1.60;;;;;;;;;;5114007;28;20214;-57
2022/04/04 13:46:37;;;;;;;1.80;1.67;;;;;;;;;;5097370;28;20203;-56
2022/04/04 13:49:04;;;;;;;2.30;1.60;;;;;;;;;;5108324;28;20207;-56
2022/04/04 13:51:32;;;;;;;1.98;1.45;;;;;;;;;;5116318;28;20205;-56
2022/04/04 13:54:02;;;;;;;1.60;1.50;;;;;;;;;;5115760;28;20242;-56
2022/04/04 13:56:32;;;;;;;2.40;1.40;;;;;;;;;;5112971;28;20187;-56
2022/04/04 13:59:01;;;;;;;1.92;1.73;;;;;;;;;;5106878;28;20199;-56
2022/04/04 14:01:29;;;;;;;2.75;1.70;;;;;;;;;;5115122;28;20207;-56
2022/04/04 14:03:57;;;;;;;2.30;1.88;;;;;;;;;;5096987;28;20206;-57
2022/04/04 14:06:25;;;;;;;2.70;1.70;;;;;;;;;;5095068;28;20203;-56
2022/04/04 14:08:53;;;;;;;2.00;1.67;;;;;;;;;;5094697;28;20204;-56
2022/04/04 14:11:20;;;;;;;1.90;1.80;;;;;;;;;;5094393;28;20204;-56
2022/04/04 14:13:50;;;;;;;2.15;1.73;;;;;;;;;;5095190;28;20800;-56
2022/04/04 14:16:18;;;;;;;1.95;1.85;;;;;;;;;;5114504;28;20195;-56
2022/04/04 14:18:45;;;;;;;1.67;1.58;;;;;;;;;;5115413;28;20214;-56
2022/04/04 14:21:15;;;;;;;1.83;1.73;;;;;;;;;;5117030;28;20701;-55
2022/04/04 14:23:43;;;;;;;2.28;2.00;;;;;;;;;;5115885;28;20697;-56
2022/04/04 14:26:11;;;;;;;2.22;1.85;;;;;;;;;;5115232;28;20255;-56
2022/04/04 14:28:39;;;;;;;1.73;1.42;;;;;;;;;;5114538;28;20199;-56
2022/04/04 14:31:07;;;;;;;1.80;1.70;;;;;;;;;;5115497;28;20203;-56
2022/04/04 14:33:35;;;;;;;1.98;1.50;;;;;;;;;;5115883;28;20238;-56
2022/04/04 14:36:04;;;;;;;2.22;1.55;;;;;;;;;;5115798;28;20655;-56
2022/04/04 14:38:35;;;;;;;1.52;1.38;;;;;;;;;;5115395;28;20714;-56
2022/04/04 14:41:03;;;;;;;3.35;1.70;;;;;;;;;;5111004;28;20250;-56
2022/04/04 14:43:30;;;;;;;3.47;1.60;;;;;;;;;;5115636;28;20206;-55
2022/04/04 14:45:58;;;;;;;1.58;1.30;;;;;;;;;;5113369;28;20195;-55
2022/04/04 14:48:27;;;;;;;1.60;1.25;;;;;;;;;;5115493;28;20214;-55
2022/04/04 14:50:54;;;;;;;1.30;1.20;;;;;;;;;;5105102;28;20192;-55
2022/04/04 14:53:22;;;;;;;1.70;1.60;;;;;;;;;;5095410;28;20207;-57
2022/04/04 14:55:49;;;;;;;2.75;1.73;;;;;;;;;;5110568;28;20199;-56
2022/04/04 14:58:17;;;;;;;1.80;1.40;;;;;;;;;;5100275;28;20244;-55
2022/04/04 15:00:45;;;;;;;1.55;1.45;;;;;;;;;;5114820;28;20489;-56